createdAt,value
2018-06-01T00:00:27.359Z,24.56
2018-06-01T00:01:30.687Z,24.55
2018-06-01T00:02:34.003Z,24.54
2018-06-01T00:03:37.365Z,24.53
2018-06-01T00:04:40.756Z,24.53
2018-06-01T00:05:44.073Z,24.53
2018-06-01T00:06:47.388Z,24.52
2018-06-01T00:07:50.875Z,24.52
2018-06-01T00:08:54.236Z,24.51
2018-06-01T00:09:57.568Z,24.51
2018-06-01T00:11:01.235Z,24.50
2018-06-01T00:12:05.444Z,24.50
2018-06-01T00:13:08.763Z,24.50
2018-06-01T00:14:12.116Z,24.49
2018-06-01T00:15:15.439Z,24.50
2018-06-01T00:16:18.759Z,24.50
2018-06-01T00:17:22.091Z,24.49
2018-06-01T00:18:25.516Z,24.48
2018-06-01T00:19:28.857Z,24.47
2018-06-01T00:20:32.175Z,24.47
2018-06-01T00:21:35.513Z,24.47
2018-06-01T00:22:38.836Z,24.45
2018-06-01T00:23:42.178Z,24.45
2018-06-01T00:24:45.527Z,24.43
2018-06-01T00:25:48.846Z,24.42
2018-06-01T00:26:52.163Z,24.40
2018-06-01T00:27:55.502Z,24.39
2018-06-01T00:28:58.829Z,24.39
2018-06-01T00:30:02.183Z,24.38
2018-06-01T00:31:05.508Z,24.37
2018-06-01T00:32:08.839Z,24.35
2018-06-01T00:33:12.155Z,24.35
2018-06-01T00:34:15.492Z,24.34
2018-06-01T00:35:18.843Z,24.33
2018-06-01T00:36:22.191Z,24.32
2018-06-01T00:37:25.519Z,24.32
2018-06-01T00:38:28.843Z,24.30
2018-06-01T00:39:32.172Z,24.29
2018-06-01T00:40:35.533Z,24.29
2018-06-01T00:41:38.959Z,24.28
2018-06-01T00:42:42.269Z,24.29
2018-06-01T00:43:45.600Z,24.28
2018-06-01T00:44:48.923Z,24.27
2018-06-01T00:45:52.271Z,24.27
2018-06-01T00:46:55.619Z,24.27
2018-06-01T00:47:58.959Z,24.26
2018-06-01T00:49:02.304Z,24.25
2018-06-01T00:50:05.632Z,24.25
2018-06-01T00:51:08.988Z,24.24
2018-06-01T00:52:12.306Z,24.23
2018-06-01T00:53:15.635Z,24.22
2018-06-01T00:54:18.971Z,24.21
2018-06-01T00:55:25.207Z,24.21
2018-06-01T00:56:28.574Z,24.20
2018-06-01T00:57:31.904Z,24.19
2018-06-01T00:58:35.244Z,24.18
2018-06-01T00:59:38.571Z,24.18
2018-06-01T01:00:41.927Z,24.17
2018-06-01T01:01:45.288Z,24.17
2018-06-01T01:02:48.622Z,24.15
2018-06-01T01:03:51.932Z,24.14
2018-06-01T01:04:55.250Z,24.12
2018-06-01T01:05:58.581Z,24.11
2018-06-01T01:07:01.926Z,24.10
2018-06-01T01:08:05.247Z,24.08
2018-06-01T01:09:08.566Z,24.08
2018-06-01T01:10:11.932Z,24.06
2018-06-01T01:11:15.529Z,24.05
2018-06-01T01:12:18.875Z,24.03
2018-06-01T01:13:22.213Z,24.01
2018-06-01T01:14:25.545Z,24.00
2018-06-01T01:15:28.859Z,23.99
2018-06-01T01:16:32.180Z,23.98
2018-06-01T01:17:35.539Z,23.95
2018-06-01T01:18:39.026Z,23.94
2018-06-01T01:19:42.357Z,23.91
2018-06-01T01:20:45.676Z,23.90
2018-06-01T01:21:49.011Z,23.89
2018-06-01T01:22:52.371Z,23.87
2018-06-01T01:23:55.682Z,23.85
2018-06-01T01:24:59.012Z,23.85
2018-06-01T01:26:02.345Z,23.83
2018-06-01T01:27:05.665Z,23.83
2018-06-01T01:28:09.012Z,23.83
2018-06-01T01:29:12.332Z,23.83
2018-06-01T01:30:15.646Z,23.83
2018-06-01T01:31:18.983Z,23.83
2018-06-01T01:32:22.369Z,23.83
2018-06-01T01:33:25.735Z,23.84
2018-06-01T01:34:29.078Z,23.86
2018-06-01T01:35:32.422Z,23.86
2018-06-01T01:36:35.755Z,23.87
2018-06-01T01:37:39.076Z,23.88
2018-06-01T01:38:42.427Z,23.88
2018-06-01T01:39:45.777Z,23.88
2018-06-01T01:40:59.584Z,23.87
2018-06-01T01:42:02.908Z,23.85
2018-06-01T01:43:06.231Z,23.85
2018-06-01T01:44:09.595Z,23.85
2018-06-01T01:45:12.920Z,23.85
2018-06-01T01:46:16.261Z,23.86
2018-06-01T01:47:19.587Z,23.86
2018-06-01T01:48:22.917Z,23.87
2018-06-01T01:49:26.261Z,23.88
2018-06-01T01:50:29.602Z,23.88
2018-06-01T01:51:32.932Z,23.89
2018-06-01T01:52:36.256Z,23.90
2018-06-01T01:53:39.570Z,23.91
2018-06-01T01:54:42.927Z,23.92
2018-06-01T01:55:46.249Z,23.93
2018-06-01T01:56:49.565Z,23.94
2018-06-01T01:57:52.883Z,23.95
2018-06-01T01:58:56.216Z,23.95
2018-06-01T01:59:59.560Z,23.95
2018-06-01T02:01:02.879Z,23.94
2018-06-01T02:02:06.252Z,23.94
2018-06-01T02:03:09.572Z,23.94
2018-06-01T02:04:12.896Z,23.95
2018-06-01T02:05:16.247Z,23.95
2018-06-01T02:06:19.576Z,23.94
2018-06-01T02:07:22.902Z,23.94
2018-06-01T02:08:26.224Z,23.95
2018-06-01T02:09:29.545Z,23.94
2018-06-01T02:10:32.912Z,23.94
2018-06-01T02:11:36.420Z,23.92
2018-06-01T02:12:39.742Z,23.92
2018-06-01T02:13:43.080Z,23.91
2018-06-01T02:14:46.439Z,23.91
2018-06-01T02:15:49.807Z,23.90
2018-06-01T02:16:53.141Z,23.89
2018-06-01T02:17:56.477Z,23.88
2018-06-01T02:18:59.967Z,23.86
2018-06-01T02:20:03.300Z,23.85
2018-06-01T02:21:06.641Z,23.83
2018-06-01T02:22:09.971Z,23.81
2018-06-01T02:23:13.303Z,23.80
2018-06-01T02:24:16.628Z,23.78
2018-06-01T02:25:19.947Z,23.77
2018-06-01T02:27:32.843Z,23.70
2018-06-01T02:28:36.164Z,23.69
2018-06-01T02:29:39.483Z,23.66
2018-06-01T02:30:42.818Z,23.64
2018-06-01T02:31:46.177Z,23.63
2018-06-01T02:32:49.511Z,23.62
2018-06-01T02:33:52.851Z,23.60
2018-06-01T02:34:56.177Z,23.60
2018-06-01T02:35:59.509Z,23.59
2018-06-01T02:37:02.860Z,23.58
2018-06-01T02:38:06.184Z,23.57
2018-06-01T02:39:10.010Z,23.57
2018-06-01T02:40:13.356Z,23.57
2018-06-01T02:41:16.703Z,23.56
2018-06-01T02:42:20.048Z,23.56
2018-06-01T02:43:23.386Z,23.56
2018-06-01T02:44:26.726Z,23.56
2018-06-01T02:45:30.069Z,23.55
2018-06-01T02:46:33.400Z,23.55
2018-06-01T02:47:36.760Z,23.55
2018-06-01T02:48:40.090Z,23.55
2018-06-01T02:49:43.442Z,23.54
2018-06-01T02:50:47.228Z,23.53
2018-06-01T02:51:50.554Z,23.53
2018-06-01T02:52:53.920Z,23.52
2018-06-01T02:53:57.263Z,23.50
2018-06-01T02:55:00.602Z,23.50
2018-06-01T02:56:03.929Z,23.49
2018-06-01T02:57:07.257Z,23.48
2018-06-01T02:58:10.621Z,23.48
2018-06-01T02:59:13.952Z,23.46
2018-06-01T03:00:17.282Z,23.45
2018-06-01T03:01:20.607Z,23.44
2018-06-01T03:02:23.924Z,23.43
2018-06-01T03:03:27.278Z,23.42
2018-06-01T03:04:30.603Z,23.42
2018-06-01T03:05:33.949Z,23.40
2018-06-01T03:06:48.882Z,23.36
2018-06-01T03:07:52.225Z,23.33
2018-06-01T03:08:55.575Z,23.33
2018-06-01T03:09:58.911Z,23.32
2018-06-01T03:11:02.232Z,23.30
2018-06-01T03:12:05.699Z,23.28
2018-06-01T03:13:09.021Z,23.25
2018-06-01T03:14:12.374Z,23.23
2018-06-01T03:15:15.716Z,23.21
2018-06-01T03:16:19.044Z,23.19
2018-06-01T03:17:22.396Z,23.18
2018-06-01T03:18:25.752Z,23.17
2018-06-01T03:19:29.096Z,23.18
2018-06-01T03:20:32.419Z,23.17
2018-06-01T03:21:35.761Z,23.17
2018-06-01T03:22:39.159Z,23.16
2018-06-01T03:23:42.487Z,23.16
2018-06-01T03:24:45.842Z,23.15
2018-06-01T03:25:49.172Z,23.15
2018-06-01T03:26:52.517Z,23.14
2018-06-01T03:27:55.827Z,23.14
2018-06-01T03:28:59.520Z,23.13
2018-06-01T03:30:02.861Z,23.14
2018-06-01T03:31:06.190Z,23.15
2018-06-01T03:32:09.542Z,23.16
2018-06-01T03:33:12.862Z,23.17
2018-06-01T03:34:16.199Z,23.17
2018-06-01T03:35:19.543Z,23.18
2018-06-01T03:36:22.877Z,23.19
2018-06-01T03:37:26.200Z,23.20
2018-06-01T03:38:29.544Z,23.22
2018-06-01T03:39:32.876Z,23.24
2018-06-01T03:40:36.247Z,23.25
2018-06-01T03:41:39.580Z,23.25
2018-06-01T03:42:42.903Z,23.26
2018-06-01T03:43:46.255Z,23.25
2018-06-01T03:44:49.593Z,23.24
2018-06-01T03:45:53.113Z,23.24
2018-06-01T03:46:56.868Z,23.23
2018-06-01T03:48:00.191Z,23.21
2018-06-01T03:49:03.527Z,23.21
2018-06-01T03:50:06.914Z,23.21
2018-06-01T03:51:10.282Z,23.20
2018-06-01T03:52:13.599Z,23.21
2018-06-01T03:53:16.960Z,23.21
2018-06-01T03:54:20.301Z,23.22
2018-06-01T03:55:23.639Z,23.22
2018-06-01T03:56:26.978Z,23.22
2018-06-01T03:57:30.300Z,23.22
2018-06-01T03:58:33.659Z,23.21
2018-06-01T03:59:37.004Z,23.21
2018-06-01T04:00:40.351Z,23.22
2018-06-01T04:01:43.715Z,23.21
2018-06-01T04:02:47.043Z,23.22
2018-06-01T04:03:50.402Z,23.21
2018-06-01T04:04:53.738Z,23.22
2018-06-01T04:05:57.088Z,23.21
2018-06-01T04:07:00.437Z,23.19
2018-06-01T04:08:03.764Z,23.18
2018-06-01T04:09:07.091Z,23.18
2018-06-01T04:10:10.554Z,23.18
2018-06-01T04:11:13.897Z,23.16
2018-06-01T04:12:17.420Z,23.15
2018-06-01T04:13:20.751Z,23.14
2018-06-01T04:14:24.089Z,23.13
2018-06-01T04:15:27.420Z,23.13
2018-06-01T04:16:30.755Z,23.09
2018-06-01T04:17:34.119Z,23.08
2018-06-01T04:18:37.478Z,23.08
2018-06-01T04:19:40.818Z,23.07
2018-06-01T04:20:44.234Z,23.07
2018-06-01T04:21:47.556Z,23.06
2018-06-01T04:22:50.922Z,23.06
2018-06-01T04:23:54.244Z,23.06
2018-06-01T04:24:57.617Z,23.07
2018-06-01T04:26:00.956Z,23.08
2018-06-01T04:27:04.284Z,23.08
2018-06-01T04:28:07.644Z,23.09
2018-06-01T04:29:10.982Z,23.10
2018-06-01T04:30:14.310Z,23.11
2018-06-01T04:31:17.643Z,23.14
2018-06-01T04:32:20.971Z,23.14
2018-06-01T04:33:24.335Z,23.15
2018-06-01T04:34:27.697Z,23.17
2018-06-01T04:35:31.020Z,23.18
2018-06-01T04:36:34.357Z,23.18
2018-06-01T04:37:37.679Z,23.20
2018-06-01T04:38:41.017Z,23.20
2018-06-01T04:39:44.343Z,23.22
2018-06-01T04:40:47.692Z,23.24
2018-06-01T04:41:51.008Z,23.26
2018-06-01T04:42:54.448Z,23.28
2018-06-01T04:43:57.845Z,23.30
2018-06-01T04:45:01.182Z,23.32
2018-06-01T04:46:04.510Z,23.33
2018-06-01T04:47:07.836Z,23.35
2018-06-01T04:48:11.188Z,23.36
2018-06-01T04:49:14.573Z,23.37
2018-06-01T04:50:17.901Z,23.38
2018-06-01T04:51:21.280Z,23.38
2018-06-01T04:52:24.608Z,23.38
2018-06-01T04:53:27.938Z,23.38
2018-06-01T04:54:31.299Z,23.38
2018-06-01T04:55:34.627Z,23.38
2018-06-01T04:56:37.961Z,23.38
2018-06-01T04:57:41.361Z,23.38
2018-06-01T04:58:44.671Z,23.38
2018-06-01T04:59:48.027Z,23.37
2018-06-01T05:00:51.364Z,23.37
2018-06-01T05:01:54.691Z,23.36
2018-06-01T05:02:58.034Z,23.35
2018-06-01T05:04:01.357Z,23.35
2018-06-01T05:05:04.745Z,23.35
2018-06-01T05:06:08.113Z,23.35
2018-06-01T05:07:11.433Z,23.35
2018-06-01T05:08:15.188Z,23.35
2018-06-01T05:09:18.490Z,23.35
2018-06-01T05:10:21.862Z,23.35
2018-06-01T05:11:25.195Z,23.35
2018-06-01T05:12:28.533Z,23.34
2018-06-01T05:13:31.847Z,23.33
2018-06-01T05:14:35.176Z,23.33
2018-06-01T05:15:38.543Z,23.32
2018-06-01T05:16:41.891Z,23.31
2018-06-01T05:17:45.213Z,23.30
2018-06-01T05:18:48.603Z,23.27
2018-06-01T05:19:51.955Z,23.25
2018-06-01T05:20:55.332Z,23.22
2018-06-01T05:21:58.674Z,23.20
2018-06-01T05:23:02.046Z,23.17
2018-06-01T05:24:05.390Z,23.14
2018-06-01T05:25:08.714Z,23.09
2018-06-01T05:26:12.079Z,23.04
2018-06-01T05:27:15.704Z,22.97
2018-06-01T05:28:19.040Z,22.92
2018-06-01T05:29:22.425Z,22.86
2018-06-01T05:30:25.923Z,22.81
2018-06-01T05:31:29.283Z,22.76
2018-06-01T05:32:32.610Z,22.72
2018-06-01T05:33:35.944Z,22.66
2018-06-01T05:34:39.278Z,22.60
2018-06-01T05:35:42.604Z,22.55
2018-06-01T05:36:45.954Z,22.52
2018-06-01T05:37:49.283Z,22.48
2018-06-01T05:38:52.619Z,22.45
2018-06-01T05:39:55.954Z,22.41
2018-06-01T05:40:59.284Z,22.39
2018-06-01T05:42:02.647Z,22.38
2018-06-01T05:43:06.002Z,22.37
2018-06-01T05:44:09.369Z,22.37
2018-06-01T05:45:12.717Z,22.35
2018-06-01T05:46:16.131Z,22.34
2018-06-01T05:47:19.774Z,22.31
2018-06-01T05:48:23.099Z,22.30
2018-06-01T05:49:26.444Z,22.29
2018-06-01T05:50:29.814Z,22.27
2018-06-01T05:51:33.148Z,22.27
2018-06-01T05:52:36.517Z,22.25
2018-06-01T05:53:39.849Z,22.23
2018-06-01T05:54:43.193Z,22.20
2018-06-01T05:55:46.563Z,22.19
2018-06-01T05:56:49.882Z,22.17
2018-06-01T05:57:53.243Z,22.15
2018-06-01T05:58:56.571Z,22.13
2018-06-01T05:59:59.907Z,22.12
2018-06-01T06:01:03.234Z,22.11
2018-06-01T06:02:06.592Z,22.08
2018-06-01T06:03:09.938Z,22.07
2018-06-01T06:04:13.269Z,22.05
2018-06-01T06:05:16.604Z,22.05
2018-06-01T06:06:19.982Z,22.04
2018-06-01T06:07:23.330Z,22.05
2018-06-01T06:08:26.704Z,22.05
2018-06-01T06:09:30.114Z,22.07
2018-06-01T06:10:33.427Z,22.09
2018-06-01T06:11:36.792Z,22.10
2018-06-01T06:12:40.213Z,22.11
2018-06-01T06:13:43.573Z,22.12
2018-06-01T06:14:46.907Z,22.13
2018-06-01T06:15:50.247Z,22.13
2018-06-01T06:16:53.589Z,22.11
2018-06-01T06:17:56.927Z,22.10
2018-06-01T06:19:00.299Z,22.11
2018-06-01T06:20:03.796Z,22.12
2018-06-01T06:21:07.129Z,22.12
2018-06-01T06:22:10.457Z,22.12
2018-06-01T06:23:13.939Z,22.12
2018-06-01T06:24:17.294Z,22.12
2018-06-01T06:25:20.624Z,22.12
2018-06-01T06:26:23.943Z,22.12
2018-06-01T06:27:27.288Z,22.12
2018-06-01T06:28:30.609Z,22.14
2018-06-01T06:29:34.031Z,22.15
2018-06-01T06:30:37.364Z,22.17
2018-06-01T06:31:40.700Z,22.18
2018-06-01T06:32:44.038Z,22.18
2018-06-01T06:33:47.630Z,22.19
2018-06-01T06:34:50.999Z,22.20
2018-06-01T06:35:54.324Z,22.20
2018-06-01T06:36:57.653Z,22.22
2018-06-01T06:38:01.144Z,22.23
2018-06-01T06:39:04.447Z,22.24
2018-06-01T06:40:07.827Z,22.26
2018-06-01T06:41:11.148Z,22.27
2018-06-01T06:42:14.491Z,22.28
2018-06-01T06:43:17.831Z,22.29
2018-06-01T06:44:21.190Z,22.31
2018-06-01T06:45:24.543Z,22.32
2018-06-01T06:46:27.867Z,22.29
2018-06-01T06:47:31.226Z,22.27
2018-06-01T06:48:34.578Z,22.24
2018-06-01T06:49:37.955Z,22.21
2018-06-01T06:50:41.469Z,22.16
2018-06-01T06:51:44.784Z,22.07
2018-06-01T06:52:48.120Z,22.00
2018-06-01T06:53:51.447Z,21.93
2018-06-01T06:54:54.813Z,21.85
2018-06-01T06:55:58.180Z,21.77
2018-06-01T06:57:01.600Z,21.69
2018-06-01T06:58:04.955Z,21.62
2018-06-01T06:59:08.283Z,21.60
2018-06-01T07:00:12.827Z,21.59
2018-06-01T07:01:16.211Z,21.59
2018-06-01T07:02:19.537Z,21.61
2018-06-01T07:03:22.862Z,21.61
2018-06-01T07:04:26.188Z,21.63
2018-06-01T07:05:29.520Z,21.67
2018-06-01T07:06:32.910Z,21.70
2018-06-01T07:07:36.238Z,21.75
2018-06-01T07:08:39.563Z,21.75
2018-06-01T07:09:43.121Z,21.71
2018-06-01T07:10:46.450Z,21.71
2018-06-01T07:11:49.808Z,21.73
2018-06-01T07:12:53.294Z,21.73
2018-06-01T07:13:56.624Z,21.77
2018-06-01T07:14:59.949Z,21.81
2018-06-01T07:16:03.275Z,21.82
2018-06-01T07:17:06.652Z,21.78
2018-06-01T07:18:09.974Z,21.75
2018-06-01T07:19:13.301Z,21.72
2018-06-01T07:20:16.681Z,21.74
2018-06-01T07:21:19.942Z,21.74
2018-06-01T07:22:23.331Z,21.74
2018-06-01T07:23:26.636Z,21.75
2018-06-01T07:24:29.981Z,21.76
2018-06-01T07:25:33.379Z,21.77
2018-06-01T07:26:36.689Z,21.78
2018-06-01T07:27:40.055Z,21.79
2018-06-01T07:28:43.374Z,21.78
2018-06-01T07:29:46.751Z,21.78
2018-06-01T07:30:50.079Z,21.80
2018-06-01T07:31:53.408Z,21.82
2018-06-01T07:32:56.772Z,21.85
2018-06-01T07:34:00.108Z,21.87
2018-06-01T07:35:03.426Z,21.90
2018-06-01T07:36:06.754Z,21.91
2018-06-01T07:37:10.072Z,21.91
2018-06-01T07:38:13.423Z,21.89
2018-06-01T07:39:16.757Z,21.88
2018-06-01T07:40:20.098Z,21.88
2018-06-01T07:41:23.422Z,21.88
2018-06-01T07:42:26.799Z,21.89
2018-06-01T07:43:30.155Z,21.88
2018-06-01T07:44:33.485Z,21.88
2018-06-01T07:45:36.804Z,21.87
2018-06-01T07:46:40.132Z,21.86
2018-06-01T07:47:43.485Z,21.84
2018-06-01T07:48:46.807Z,21.85
2018-06-01T07:49:50.168Z,21.86
2018-06-01T07:50:53.491Z,21.87
2018-06-01T07:51:56.849Z,21.89
2018-06-01T07:53:00.170Z,21.91
2018-06-01T07:54:03.512Z,21.94
2018-06-01T07:55:06.835Z,21.95
2018-06-01T07:56:10.161Z,21.98
2018-06-01T07:57:13.511Z,21.99
2018-06-01T07:58:16.856Z,22.01
2018-06-01T07:59:20.211Z,22.03
2018-06-01T08:00:23.595Z,22.04
2018-06-01T08:01:26.980Z,22.06
2018-06-01T08:02:30.363Z,22.09
2018-06-01T08:03:33.733Z,22.11
2018-06-01T08:04:37.077Z,22.14
2018-06-01T08:05:40.455Z,22.17
2018-06-01T08:06:43.856Z,22.19
2018-06-01T08:07:47.228Z,22.21
2018-06-01T08:08:50.612Z,22.21
2018-06-01T08:09:54.014Z,22.24
2018-06-01T08:10:57.403Z,22.25
2018-06-01T08:12:00.763Z,22.26
2018-06-01T08:13:04.344Z,22.27
2018-06-01T08:14:07.677Z,22.27
2018-06-01T08:15:11.098Z,22.29
2018-06-01T08:16:14.487Z,22.31
2018-06-01T08:17:17.859Z,22.31
2018-06-01T08:18:21.337Z,22.33
2018-06-01T08:19:24.723Z,22.33
2018-06-01T08:20:28.282Z,22.35
2018-06-01T08:21:31.747Z,22.35
2018-06-01T08:22:35.134Z,22.35
2018-06-01T08:23:38.511Z,22.35
2018-06-01T08:24:41.889Z,22.35
2018-06-01T08:25:45.403Z,22.34
2018-06-01T08:26:48.741Z,22.35
2018-06-01T08:27:52.100Z,22.35
2018-06-01T08:28:55.508Z,22.36
2018-06-01T08:29:58.947Z,22.36
2018-06-01T08:31:02.351Z,22.36
2018-06-01T08:32:09.835Z,22.36
2018-06-01T08:33:13.279Z,22.35
2018-06-01T08:34:16.647Z,22.35
2018-06-01T08:35:20.054Z,22.33
2018-06-01T08:36:23.467Z,22.33
2018-06-01T08:37:26.853Z,22.30
2018-06-01T08:38:30.310Z,22.28
2018-06-01T08:39:33.700Z,22.27
2018-06-01T08:40:40.505Z,22.25
2018-06-01T08:41:43.892Z,22.23
2018-06-01T08:42:47.250Z,22.23
2018-06-01T08:43:50.620Z,22.21
2018-06-01T08:44:54.044Z,22.20
2018-06-01T08:45:57.421Z,22.19
2018-06-01T08:47:00.820Z,22.18
2018-06-01T08:48:04.176Z,22.17
2018-06-01T08:49:07.516Z,22.14
2018-06-01T08:50:10.878Z,22.13
2018-06-01T08:51:14.619Z,22.12
2018-06-01T08:52:18.131Z,22.10
2018-06-01T08:53:21.515Z,22.11
2018-06-01T08:54:24.860Z,22.10
2018-06-01T08:55:28.228Z,22.10
2018-06-01T08:56:31.585Z,22.10
2018-06-01T08:57:35.275Z,22.11
2018-06-01T08:58:38.632Z,22.13
2018-06-01T08:59:41.960Z,22.14
2018-06-01T09:00:45.336Z,22.16
2018-06-01T09:01:48.734Z,22.17
2018-06-01T09:02:52.123Z,22.17
2018-06-01T09:03:55.447Z,22.17
2018-06-01T09:04:58.842Z,22.16
2018-06-01T09:06:02.228Z,22.14
2018-06-01T09:07:05.620Z,22.12
2018-06-01T09:08:09.002Z,22.10
2018-06-01T09:09:12.373Z,22.09
2018-06-01T09:10:15.842Z,22.08
2018-06-01T09:11:19.134Z,22.07
2018-06-01T09:12:22.495Z,22.07
2018-06-01T09:13:26.404Z,22.06
2018-06-01T09:14:29.768Z,22.05
2018-06-01T09:15:33.191Z,22.04
2018-06-01T09:16:36.561Z,22.03
2018-06-01T09:17:39.955Z,22.02
2018-06-01T09:18:43.341Z,22.02
2018-06-01T09:19:46.794Z,22.03
2018-06-01T09:20:50.173Z,22.04
2018-06-01T09:21:53.588Z,22.06
2018-06-01T09:22:56.980Z,22.06
2018-06-01T09:24:00.393Z,22.06
2018-06-01T09:25:03.742Z,22.06
2018-06-01T09:26:07.116Z,22.06
2018-06-01T09:27:10.475Z,22.05
2018-06-01T09:28:13.870Z,22.04
2018-06-01T09:29:17.539Z,22.04
2018-06-01T09:30:20.896Z,22.03
2018-06-01T09:31:24.290Z,22.04
2018-06-01T09:32:27.699Z,22.05
2018-06-01T09:33:31.120Z,22.05
2018-06-01T09:34:34.471Z,22.05
2018-06-01T09:35:37.904Z,22.06
2018-06-01T09:36:41.604Z,22.07
2018-06-01T09:37:45.355Z,22.08
2018-06-01T09:38:48.731Z,22.09
2018-06-01T09:39:52.233Z,22.10
2018-06-01T09:40:55.622Z,22.10
2018-06-01T09:41:58.972Z,22.09
2018-06-01T09:43:02.888Z,22.08
2018-06-01T09:44:06.251Z,22.05
2018-06-01T09:45:09.643Z,22.04
2018-06-01T09:46:13.071Z,22.03
2018-06-01T09:47:16.436Z,22.03
2018-06-01T09:48:19.763Z,22.04
2018-06-01T09:49:23.143Z,22.05
2018-06-01T09:50:26.555Z,22.06
2018-06-01T09:51:30.685Z,22.07
2018-06-01T09:52:34.019Z,22.08
2018-06-01T09:53:37.383Z,22.08
2018-06-01T09:54:40.699Z,22.06
2018-06-01T09:55:44.076Z,22.07
2018-06-01T09:56:47.439Z,22.07
2018-06-01T09:57:50.761Z,22.08
2018-06-01T09:58:54.115Z,22.10
2018-06-01T09:59:57.435Z,22.09
2018-06-01T10:01:00.799Z,22.09
2018-06-01T10:02:04.123Z,22.10
2018-06-01T10:03:07.446Z,22.11
2018-06-01T10:04:10.775Z,22.13
2018-06-01T10:05:14.113Z,22.14
2018-06-01T10:06:17.462Z,22.14
2018-06-01T10:07:20.787Z,22.16
2018-06-01T10:08:24.134Z,22.20
2018-06-01T10:09:27.471Z,22.24
2018-06-01T10:10:36.586Z,22.28
2018-06-01T10:11:39.943Z,22.33
2018-06-01T10:12:43.267Z,22.37
2018-06-01T10:13:47.508Z,22.41
2018-06-01T10:14:50.834Z,22.42
2018-06-01T10:15:54.170Z,22.43
2018-06-01T10:16:57.523Z,22.44
2018-06-01T10:18:00.864Z,22.44
2018-06-01T10:19:04.228Z,22.43
2018-06-01T10:20:07.545Z,22.43
2018-06-01T10:21:10.878Z,22.44
2018-06-01T10:22:14.242Z,22.43
2018-06-01T10:23:17.569Z,22.42
2018-06-01T10:24:20.900Z,22.41
2018-06-01T10:25:24.246Z,22.40
2018-06-01T10:26:27.649Z,22.40
2018-06-01T10:27:30.955Z,22.41
2018-06-01T10:28:34.809Z,22.43
2018-06-01T10:29:38.475Z,22.45
2018-06-01T10:30:42.036Z,22.45
2018-06-01T10:31:45.390Z,22.46
2018-06-01T10:32:48.757Z,22.46
2018-06-01T10:33:52.094Z,22.46
2018-06-01T10:34:55.434Z,22.45
2018-06-01T10:35:58.751Z,22.45
2018-06-01T10:37:02.082Z,22.44
2018-06-01T10:38:05.438Z,22.42
2018-06-01T10:39:08.944Z,22.43
2018-06-01T10:40:12.325Z,22.43
2018-06-01T10:41:15.648Z,22.44
2018-06-01T10:42:18.987Z,22.45
2018-06-01T10:43:22.345Z,22.46
2018-06-01T10:44:25.661Z,22.46
2018-06-01T10:45:29.003Z,22.47
2018-06-01T10:46:32.323Z,22.49
2018-06-01T10:47:35.661Z,22.51
2018-06-01T10:48:39.075Z,22.53
2018-06-01T10:49:42.415Z,22.54
2018-06-01T10:50:45.748Z,22.56
2018-06-01T10:51:49.075Z,22.58
2018-06-01T10:52:52.405Z,22.59
2018-06-01T10:53:55.770Z,22.59
2018-06-01T10:54:59.173Z,22.61
2018-06-01T10:56:02.524Z,22.63
2018-06-01T10:57:05.857Z,22.67
2018-06-01T10:58:09.200Z,22.70
2018-06-01T10:59:12.616Z,22.73
2018-06-01T11:00:15.946Z,22.78
2018-06-01T11:01:19.356Z,22.81
2018-06-01T11:02:22.702Z,22.83
2018-06-01T11:03:26.043Z,22.85
2018-06-01T11:04:29.417Z,22.87
2018-06-01T11:05:32.759Z,22.89
2018-06-01T11:06:36.096Z,22.90
2018-06-01T11:07:39.426Z,22.91
2018-06-01T11:08:42.782Z,22.90
2018-06-01T11:09:46.138Z,22.90
2018-06-01T11:10:49.478Z,22.91
2018-06-01T11:11:52.803Z,22.92
2018-06-01T11:12:56.133Z,22.94
2018-06-01T11:13:59.629Z,22.97
2018-06-01T11:15:03.018Z,23.00
2018-06-01T11:16:06.587Z,23.05
2018-06-01T11:17:09.916Z,23.09
2018-06-01T11:18:13.279Z,23.15
2018-06-01T11:19:16.607Z,23.19
2018-06-01T11:20:19.989Z,23.24
2018-06-01T11:21:23.348Z,23.28
2018-06-01T11:22:26.784Z,23.31
2018-06-01T11:23:30.109Z,23.33
2018-06-01T11:24:33.438Z,23.35
2018-06-01T11:25:36.823Z,23.36
2018-06-01T11:26:40.193Z,23.38
2018-06-01T11:27:43.524Z,23.39
2018-06-01T11:28:46.847Z,23.40
2018-06-01T11:29:50.179Z,23.42
2018-06-01T11:30:53.534Z,23.44
2018-06-01T11:31:56.865Z,23.46
2018-06-01T11:33:00.186Z,23.46
2018-06-01T11:34:03.530Z,23.47
2018-06-01T11:35:06.881Z,23.47
2018-06-01T11:36:10.236Z,23.48
2018-06-01T11:37:13.583Z,23.49
2018-06-01T11:38:16.932Z,23.50
2018-06-01T11:39:20.244Z,23.51
2018-06-01T11:40:23.577Z,23.51
2018-06-01T11:41:26.929Z,23.52
2018-06-01T11:42:30.255Z,23.52
2018-06-01T11:43:33.596Z,23.51
2018-06-01T11:44:36.956Z,23.52
2018-06-01T11:45:40.277Z,23.52
2018-06-01T11:46:43.651Z,23.51
2018-06-01T11:47:46.979Z,23.50
2018-06-01T11:48:50.317Z,23.50
2018-06-01T11:49:53.646Z,23.50
2018-06-01T11:50:56.992Z,23.49
2018-06-01T11:52:00.364Z,23.47
2018-06-01T11:53:03.691Z,23.45
2018-06-01T11:54:07.525Z,23.43
2018-06-01T11:55:11.060Z,23.43
2018-06-01T11:56:14.405Z,23.44
2018-06-01T11:57:17.821Z,23.45
2018-06-01T11:58:21.119Z,23.45
2018-06-01T11:59:24.451Z,23.46
2018-06-01T12:00:27.777Z,23.48
2018-06-01T12:01:31.112Z,23.49
2018-06-01T12:02:34.468Z,23.50
2018-06-01T12:03:37.804Z,23.53
2018-06-01T12:04:41.138Z,23.56
2018-06-01T12:05:44.458Z,23.60
2018-06-01T12:06:47.814Z,23.62
2018-06-01T12:07:51.227Z,23.63
2018-06-01T12:08:54.555Z,23.63
2018-06-01T12:09:57.895Z,23.63
2018-06-01T12:11:01.267Z,23.65
2018-06-01T12:12:04.610Z,23.65
2018-06-01T12:13:07.958Z,23.63
2018-06-01T12:14:11.321Z,23.61
2018-06-01T12:15:14.663Z,23.59
2018-06-01T12:16:18.005Z,23.57
2018-06-01T12:17:21.345Z,23.56
2018-06-01T12:18:24.709Z,23.56
2018-06-01T12:19:28.028Z,23.57
2018-06-01T12:20:31.391Z,23.60
2018-06-01T12:21:34.759Z,23.65
2018-06-01T12:22:38.098Z,23.70
2018-06-01T12:23:41.551Z,23.76
2018-06-01T12:24:44.885Z,23.82
2018-06-01T12:25:48.236Z,23.88
2018-06-01T12:26:51.570Z,23.96
2018-06-01T12:27:54.907Z,24.04
2018-06-01T12:28:58.251Z,24.13
2018-06-01T12:30:01.852Z,24.22
2018-06-01T12:31:05.170Z,24.32
2018-06-01T12:32:08.497Z,24.44
2018-06-01T12:33:11.830Z,24.54
2018-06-01T12:34:15.188Z,24.62
2018-06-01T12:35:18.503Z,24.68
2018-06-01T12:36:21.863Z,24.72
2018-06-01T12:37:25.188Z,24.74
2018-06-01T12:38:28.752Z,24.75
2018-06-01T12:39:32.078Z,24.76
2018-06-01T12:40:35.399Z,24.75
2018-06-01T12:41:38.717Z,24.72
2018-06-01T12:42:42.051Z,24.68
2018-06-01T12:43:45.374Z,24.64
2018-06-01T12:44:48.927Z,24.58
2018-06-01T12:45:52.250Z,24.53
2018-06-01T12:46:55.558Z,24.48
2018-06-01T12:47:58.881Z,24.41
2018-06-01T12:49:02.198Z,24.36
2018-06-01T12:50:05.535Z,24.32
2018-06-01T12:51:08.863Z,24.28
2018-06-01T12:52:12.197Z,24.24
2018-06-01T12:53:15.524Z,24.20
2018-06-01T12:54:18.851Z,24.16
2018-06-01T12:55:22.216Z,24.13
2018-06-01T12:56:25.593Z,24.09
2018-06-01T12:57:28.888Z,24.07
2018-06-01T12:58:32.219Z,24.04
2018-06-01T12:59:35.646Z,24.02
2018-06-01T13:00:39.021Z,23.98
2018-06-01T13:01:42.462Z,23.94
2018-06-01T13:02:45.807Z,23.89
2018-06-01T13:03:49.130Z,23.86
2018-06-01T13:04:52.461Z,23.83
2018-06-01T13:05:55.824Z,23.81
2018-06-01T13:06:59.175Z,23.78
2018-06-01T13:08:02.494Z,23.76
2018-06-01T13:09:05.838Z,23.74
2018-06-01T13:10:09.175Z,23.73
2018-06-01T13:11:12.631Z,23.71
2018-06-01T13:12:15.971Z,23.70
2018-06-01T13:13:19.312Z,23.70
2018-06-01T13:14:22.758Z,23.69
2018-06-01T13:15:26.103Z,23.68
2018-06-01T13:16:29.485Z,23.69
2018-06-01T13:17:32.855Z,23.68
2018-06-01T13:18:36.207Z,23.66
2018-06-01T13:19:39.579Z,23.63
2018-06-01T13:20:42.919Z,23.62
2018-06-01T13:21:46.250Z,23.59
2018-06-01T13:22:49.578Z,23.59
2018-06-01T13:23:52.912Z,23.56
2018-06-01T13:24:56.335Z,23.55
2018-06-01T13:25:59.691Z,23.54
2018-06-01T13:27:03.050Z,23.53
2018-06-01T13:28:06.371Z,23.51
2018-06-01T13:29:09.720Z,23.49
2018-06-01T13:30:13.043Z,23.48
2018-06-01T13:31:16.377Z,23.47
2018-06-01T13:32:19.843Z,23.46
2018-06-01T13:33:23.203Z,23.44
2018-06-01T13:34:26.521Z,23.44
2018-06-01T13:35:29.869Z,23.43
2018-06-01T13:36:33.199Z,23.42
2018-06-01T13:37:36.546Z,23.42